sensor_id;sensor_type;location;lat;lon;timestamp;P1;durP1;ratioP1;P2;durP2;ratioP2
1719;SDS011;857;52.872;9.692;2023-03-12T00:01:14;6.10;;;2.50;;
1719;SDS011;857;52.872;9.692;2023-03-12T00:03:42;4.30;;;2.93;;
1719;SDS011;857;52.872;9.692;2023-03-12T00:06:09;5.43;;;3.30;;
1719;SDS011;857;52.872;9.692;2023-03-12T00:08:37;7.50;;;3.53;;
1719;SDS011;857;52.872;9.692;2023-03-12T00:11:07;6.63;;;3.93;;
1719;SDS011;857;52.872;9.692;2023-03-12T00:13:35;6.27;;;3.37;;
1719;SDS011;857;52.872;9.692;2023-03-12T00:16:04;8.60;;;4.60;;
1719;SDS011;857;52.872;9.692;2023-03-12T00:18:32;6.90;;;4.37;;
1719;SDS011;857;52.872;9.692;2023-03-12T00:21:00;5.50;;;3.80;;
1719;SDS011;857;52.872;9.692;2023-03-12T00:23:28;6.17;;;4.00;;
1719;SDS011;857;52.872;9.692;2023-03-12T00:25:58;6.77;;;3.80;;
1719;SDS011;857;52.872;9.692;2023-03-12T00:28:27;5.83;;;3.33;;
1719;SDS011;857;52.872;9.692;2023-03-12T00:30:55;3.53;;;3.10;;
1719;SDS011;857;52.872;9.692;2023-03-12T00:33:23;6.57;;;3.20;;
1719;SDS011;857;52.872;9.692;2023-03-12T00:35:51;7.43;;;3.70;;
1719;SDS011;857;52.872;9.692;2023-03-12T00:38:19;7.37;;;4.03;;
1719;SDS011;857;52.872;9.692;2023-03-12T00:40:47;5.80;;;3.60;;
1719;SDS011;857;52.872;9.692;2023-03-12T00:43:15;3.60;;;2.90;;
1719;SDS011;857;52.872;9.692;2023-03-12T00:45:44;6.53;;;3.43;;
1719;SDS011;857;52.872;9.692;2023-03-12T00:48:12;3.60;;;2.83;;
1719;SDS011;857;52.872;9.692;2023-03-12T00:50:40;3.77;;;3.07;;
1719;SDS011;857;52.872;9.692;2023-03-12T00:53:08;3.50;;;3.00;;
1719;SDS011;857;52.872;9.692;2023-03-12T00:55:35;5.60;;;3.10;;
1719;SDS011;857;52.872;9.692;2023-03-12T00:58:03;4.07;;;3.00;;
1719;SDS011;857;52.872;9.692;2023-03-12T01:00:31;3.87;;;3.13;;
1719;SDS011;857;52.872;9.692;2023-03-12T01:03:00;6.50;;;3.33;;
1719;SDS011;857;52.872;9.692;2023-03-12T01:05:27;3.40;;;2.73;;
1719;SDS011;857;52.872;9.692;2023-03-12T01:07:56;4.67;;;2.87;;
1719;SDS011;857;52.872;9.692;2023-03-12T01:10:24;4.10;;;3.20;;
1719;SDS011;857;52.872;9.692;2023-03-12T01:12:51;4.00;;;2.97;;
1719;SDS011;857;52.872;9.692;2023-03-12T01:15:19;3.30;;;2.70;;
1719;SDS011;857;52.872;9.692;2023-03-12T01:17:47;3.23;;;2.53;;
1719;SDS011;857;52.872;9.692;2023-03-12T01:20:17;3.37;;;2.90;;
1719;SDS011;857;52.872;9.692;2023-03-12T01:22:44;4.53;;;3.20;;
1719;SDS011;857;52.872;9.692;2023-03-12T01:25:12;3.70;;;3.20;;
1719;SDS011;857;52.872;9.692;2023-03-12T01:27:40;4.33;;;3.13;;
1719;SDS011;857;52.872;9.692;2023-03-12T01:30:08;4.80;;;3.43;;
1719;SDS011;857;52.872;9.692;2023-03-12T01:32:36;6.47;;;3.80;;
1719;SDS011;857;52.872;9.692;2023-03-12T01:35:04;3.00;;;2.80;;
1719;SDS011;857;52.872;9.692;2023-03-12T01:37:33;3.03;;;2.60;;
1719;SDS011;857;52.872;9.692;2023-03-12T01:40:01;3.40;;;2.80;;
1719;SDS011;857;52.872;9.692;2023-03-12T01:42:29;4.60;;;3.40;;
1719;SDS011;857;52.872;9.692;2023-03-12T01:44:57;6.03;;;3.40;;
1719;SDS011;857;52.872;9.692;2023-03-12T01:47:27;5.07;;;2.97;;
1719;SDS011;857;52.872;9.692;2023-03-12T01:49:57;6.73;;;3.60;;
1719;SDS011;857;52.872;9.692;2023-03-12T01:52:27;4.53;;;3.20;;
1719;SDS011;857;52.872;9.692;2023-03-12T01:54:57;5.17;;;3.60;;
1719;SDS011;857;52.872;9.692;2023-03-12T01:57:30;4.50;;;3.07;;
1719;SDS011;857;52.872;9.692;2023-03-12T01:59:59;4.20;;;3.07;;
1719;SDS011;857;52.872;9.692;2023-03-12T02:02:39;4.40;;;3.20;;
1719;SDS011;857;52.872;9.692;2023-03-12T02:05:10;4.60;;;3.03;;
1719;SDS011;857;52.872;9.692;2023-03-12T02:07:39;5.03;;;3.57;;
1719;SDS011;857;52.872;9.692;2023-03-12T02:10:09;5.53;;;3.03;;
1719;SDS011;857;52.872;9.692;2023-03-12T02:12:37;3.67;;;3.13;;
1719;SDS011;857;52.872;9.692;2023-03-12T02:15:05;4.40;;;3.40;;
1719;SDS011;857;52.872;9.692;2023-03-12T02:17:33;4.23;;;3.83;;
1719;SDS011;857;52.872;9.692;2023-03-12T02:20:03;6.10;;;3.37;;
1719;SDS011;857;52.872;9.692;2023-03-12T02:22:36;4.93;;;3.90;;
1719;SDS011;857;52.872;9.692;2023-03-12T02:25:17;4.70;;;3.30;;
1719;SDS011;857;52.872;9.692;2023-03-12T02:27:45;4.67;;;3.07;;
1719;SDS011;857;52.872;9.692;2023-03-12T02:30:13;4.87;;;3.10;;
1719;SDS011;857;52.872;9.692;2023-03-12T02:32:42;4.40;;;3.30;;
1719;SDS011;857;52.872;9.692;2023-03-12T02:35:10;4.00;;;3.17;;
1719;SDS011;857;52.872;9.692;2023-03-12T02:37:46;5.40;;;3.33;;
1719;SDS011;857;52.872;9.692;2023-03-12T02:40:15;4.40;;;3.53;;
1719;SDS011;857;52.872;9.692;2023-03-12T02:42:46;5.93;;;3.90;;
1719;SDS011;857;52.872;9.692;2023-03-12T02:45:13;4.90;;;3.50;;
1719;SDS011;857;52.872;9.692;2023-03-12T02:47:41;6.60;;;3.83;;
1719;SDS011;857;52.872;9.692;2023-03-12T02:50:09;4.50;;;3.37;;
1719;SDS011;857;52.872;9.692;2023-03-12T02:52:37;3.57;;;3.10;;
1719;SDS011;857;52.872;9.692;2023-03-12T02:55:05;5.17;;;3.53;;
1719;SDS011;857;52.872;9.692;2023-03-12T02:57:33;5.90;;;3.70;;
1719;SDS011;857;52.872;9.692;2023-03-12T03:00:05;6.90;;;3.20;;
1719;SDS011;857;52.872;9.692;2023-03-12T03:02:36;5.43;;;3.50;;
1719;SDS011;857;52.872;9.692;2023-03-12T03:05:04;4.77;;;3.43;;
1719;SDS011;857;52.872;9.692;2023-03-12T03:07:32;5.47;;;3.20;;
1719;SDS011;857;52.872;9.692;2023-03-12T03:10:00;5.60;;;3.60;;
1719;SDS011;857;52.872;9.692;2023-03-12T03:12:29;5.10;;;3.93;;
1719;SDS011;857;52.872;9.692;2023-03-12T03:14:59;4.90;;;3.37;;
1719;SDS011;857;52.872;9.692;2023-03-12T03:17:29;4.50;;;3.50;;
1719;SDS011;857;52.872;9.692;2023-03-12T03:19:57;7.80;;;3.50;;
1719;SDS011;857;52.872;9.692;2023-03-12T03:22:24;4.73;;;4.00;;
1719;SDS011;857;52.872;9.692;2023-03-12T03:24:52;4.60;;;3.80;;
1719;SDS011;857;52.872;9.692;2023-03-12T03:27:20;4.90;;;3.57;;
1719;SDS011;857;52.872;9.692;2023-03-12T03:29:48;8.50;;;3.80;;
1719;SDS011;857;52.872;9.692;2023-03-12T03:32:16;7.90;;;3.50;;
1719;SDS011;857;52.872;9.692;2023-03-12T03:34:45;6.83;;;3.57;;
1719;SDS011;857;52.872;9.692;2023-03-12T03:37:13;3.50;;;3.10;;
1719;SDS011;857;52.872;9.692;2023-03-12T03:39:40;4.07;;;3.50;;
1719;SDS011;857;52.872;9.692;2023-03-12T03:42:08;6.37;;;4.10;;
1719;SDS011;857;52.872;9.692;2023-03-12T03:44:36;7.03;;;3.77;;
1719;SDS011;857;52.872;9.692;2023-03-12T03:47:04;6.03;;;4.40;;
1719;SDS011;857;52.872;9.692;2023-03-12T03:49:31;5.60;;;4.63;;
1719;SDS011;857;52.872;9.692;2023-03-12T03:52:00;4.93;;;3.93;;
1719;SDS011;857;52.872;9.692;2023-03-12T03:54:33;4.53;;;3.73;;
1719;SDS011;857;52.872;9.692;2023-03-12T03:57:02;4.50;;;3.43;;
1719;SDS011;857;52.872;9.692;2023-03-12T03:59:30;5.83;;;4.00;;
1719;SDS011;857;52.872;9.692;2023-03-12T04:01:58;4.53;;;3.47;;
1719;SDS011;857;52.872;9.692;2023-03-12T04:04:28;9.80;;;4.43;;
1719;SDS011;857;52.872;9.692;2023-03-12T04:06:56;5.30;;;3.80;;
1719;SDS011;857;52.872;9.692;2023-03-12T04:09:25;6.17;;;4.37;;
1719;SDS011;857;52.872;9.692;2023-03-12T04:11:55;4.70;;;3.77;;
1719;SDS011;857;52.872;9.692;2023-03-12T04:14:22;4.63;;;4.13;;
1719;SDS011;857;52.872;9.692;2023-03-12T04:16:50;5.93;;;4.20;;
1719;SDS011;857;52.872;9.692;2023-03-12T04:19:18;4.97;;;3.70;;
1719;SDS011;857;52.872;9.692;2023-03-12T04:21:45;4.13;;;3.40;;
1719;SDS011;857;52.872;9.692;2023-03-12T04:24:14;6.60;;;3.73;;
1719;SDS011;857;52.872;9.692;2023-03-12T04:26:44;4.30;;;3.90;;
1719;SDS011;857;52.872;9.692;2023-03-12T04:29:13;5.20;;;3.87;;
1719;SDS011;857;52.872;9.692;2023-03-12T04:31:41;6.20;;;4.70;;
1719;SDS011;857;52.872;9.692;2023-03-12T04:34:08;5.30;;;3.93;;
1719;SDS011;857;52.872;9.692;2023-03-12T04:36:36;4.63;;;4.10;;
1719;SDS011;857;52.872;9.692;2023-03-12T04:39:05;4.80;;;4.20;;
1719;SDS011;857;52.872;9.692;2023-03-12T04:41:33;4.53;;;3.73;;
1719;SDS011;857;52.872;9.692;2023-03-12T04:44:07;6.33;;;4.57;;
1719;SDS011;857;52.872;9.692;2023-03-12T04:46:36;8.27;;;4.70;;
1719;SDS011;857;52.872;9.692;2023-03-12T04:49:04;6.83;;;4.53;;
1719;SDS011;857;52.872;9.692;2023-03-12T04:51:34;5.40;;;3.83;;
1719;SDS011;857;52.872;9.692;2023-03-12T04:54:03;6.10;;;4.57;;
1719;SDS011;857;52.872;9.692;2023-03-12T04:56:32;5.90;;;4.30;;
1719;SDS011;857;52.872;9.692;2023-03-12T04:59:00;7.30;;;4.23;;
1719;SDS011;857;52.872;9.692;2023-03-12T05:01:30;7.20;;;4.10;;
1719;SDS011;857;52.872;9.692;2023-03-12T05:04:02;8.63;;;4.80;;
1719;SDS011;857;52.872;9.692;2023-03-12T05:06:30;4.97;;;4.30;;
1719;SDS011;857;52.872;9.692;2023-03-12T05:08:57;5.23;;;4.17;;
1719;SDS011;857;52.872;9.692;2023-03-12T05:11:25;6.83;;;4.67;;
1719;SDS011;857;52.872;9.692;2023-03-12T05:13:53;5.40;;;4.13;;
1719;SDS011;857;52.872;9.692;2023-03-12T05:16:22;7.40;;;4.67;;
1719;SDS011;857;52.872;9.692;2023-03-12T05:18:51;6.87;;;4.80;;
1719;SDS011;857;52.872;9.692;2023-03-12T05:21:21;5.80;;;4.57;;
1719;SDS011;857;52.872;9.692;2023-03-12T05:23:52;7.30;;;5.13;;
1719;SDS011;857;52.872;9.692;2023-03-12T05:26:22;4.77;;;4.33;;
1719;SDS011;857;52.872;9.692;2023-03-12T05:28:53;6.50;;;4.60;;
1719;SDS011;857;52.872;9.692;2023-03-12T05:31:23;8.50;;;4.53;;
1719;SDS011;857;52.872;9.692;2023-03-12T05:33:52;5.73;;;4.80;;
1719;SDS011;857;52.872;9.692;2023-03-12T05:36:21;7.13;;;4.73;;
1719;SDS011;857;52.872;9.692;2023-03-12T05:38:49;6.10;;;4.63;;
1719;SDS011;857;52.872;9.692;2023-03-12T05:41:19;6.40;;;4.10;;
1719;SDS011;857;52.872;9.692;2023-03-12T05:43:48;5.40;;;4.00;;
1719;SDS011;857;52.872;9.692;2023-03-12T05:46:16;6.13;;;4.73;;
1719;SDS011;857;52.872;9.692;2023-03-12T05:48:44;10.53;;;4.30;;
1719;SDS011;857;52.872;9.692;2023-03-12T05:51:14;8.20;;;3.87;;
1719;SDS011;857;52.872;9.692;2023-03-12T05:53:42;8.17;;;5.00;;
1719;SDS011;857;52.872;9.692;2023-03-12T05:56:11;8.30;;;4.80;;
1719;SDS011;857;52.872;9.692;2023-03-12T05:58:39;7.10;;;4.80;;
1719;SDS011;857;52.872;9.692;2023-03-12T06:01:10;7.13;;;4.80;;
1719;SDS011;857;52.872;9.692;2023-03-12T06:03:38;6.40;;;4.73;;
1719;SDS011;857;52.872;9.692;2023-03-12T06:06:07;6.27;;;4.60;;
1719;SDS011;857;52.872;9.692;2023-03-12T06:08:36;5.50;;;4.60;;
1719;SDS011;857;52.872;9.692;2023-03-12T06:11:04;6.23;;;4.90;;
1719;SDS011;857;52.872;9.692;2023-03-12T06:13:32;12.07;;;5.27;;
1719;SDS011;857;52.872;9.692;2023-03-12T06:16:01;7.50;;;5.20;;
1719;SDS011;857;52.872;9.692;2023-03-12T06:18:30;7.30;;;5.67;;
1719;SDS011;857;52.872;9.692;2023-03-12T06:21:08;7.40;;;5.87;;
1719;SDS011;857;52.872;9.692;2023-03-12T06:23:38;8.23;;;6.17;;
1719;SDS011;857;52.872;9.692;2023-03-12T06:26:09;8.30;;;5.90;;
1719;SDS011;857;52.872;9.692;2023-03-12T06:28:37;9.13;;;6.00;;
1719;SDS011;857;52.872;9.692;2023-03-12T06:31:04;14.20;;;8.30;;
1719;SDS011;857;52.872;9.692;2023-03-12T06:33:32;14.43;;;7.73;;
1719;SDS011;857;52.872;9.692;2023-03-12T06:36:01;11.90;;;8.67;;
1719;SDS011;857;52.872;9.692;2023-03-12T06:38:29;9.50;;;7.03;;
1719;SDS011;857;52.872;9.692;2023-03-12T06:40:59;10.53;;;6.73;;
1719;SDS011;857;52.872;9.692;2023-03-12T06:43:27;8.90;;;5.90;;
1719;SDS011;857;52.872;9.692;2023-03-12T06:45:56;8.17;;;5.00;;
1719;SDS011;857;52.872;9.692;2023-03-12T06:48:25;6.20;;;4.43;;
1719;SDS011;857;52.872;9.692;2023-03-12T06:50:52;7.87;;;4.73;;
1719;SDS011;857;52.872;9.692;2023-03-12T06:53:20;8.40;;;5.37;;
1719;SDS011;857;52.872;9.692;2023-03-12T06:55:49;6.47;;;5.50;;
1719;SDS011;857;52.872;9.692;2023-03-12T06:58:19;6.97;;;4.80;;
1719;SDS011;857;52.872;9.692;2023-03-12T07:00:46;5.80;;;4.83;;
1719;SDS011;857;52.872;9.692;2023-03-12T07:03:14;5.50;;;4.77;;
1719;SDS011;857;52.872;9.692;2023-03-12T07:05:42;8.20;;;4.87;;
1719;SDS011;857;52.872;9.692;2023-03-12T07:08:10;5.70;;;4.50;;
1719;SDS011;857;52.872;9.692;2023-03-12T07:10:38;8.47;;;5.00;;
1719;SDS011;857;52.872;9.692;2023-03-12T07:13:06;6.97;;;4.50;;
1719;SDS011;857;52.872;9.692;2023-03-12T07:15:35;5.40;;;4.37;;
1719;SDS011;857;52.872;9.692;2023-03-12T07:18:03;4.87;;;4.00;;
1719;SDS011;857;52.872;9.692;2023-03-12T07:20:31;7.23;;;4.17;;
1719;SDS011;857;52.872;9.692;2023-03-12T07:22:59;7.60;;;4.50;;
1719;SDS011;857;52.872;9.692;2023-03-12T07:25:26;7.20;;;4.70;;
1719;SDS011;857;52.872;9.692;2023-03-12T07:27:54;6.33;;;4.70;;
1719;SDS011;857;52.872;9.692;2023-03-12T07:30:22;7.07;;;3.90;;
1719;SDS011;857;52.872;9.692;2023-03-12T07:32:51;8.40;;;4.70;;
1719;SDS011;857;52.872;9.692;2023-03-12T07:35:18;10.40;;;4.07;;
1719;SDS011;857;52.872;9.692;2023-03-12T07:37:46;5.03;;;3.70;;
1719;SDS011;857;52.872;9.692;2023-03-12T07:40:14;5.90;;;4.00;;
1719;SDS011;857;52.872;9.692;2023-03-12T07:42:41;6.23;;;3.73;;
1719;SDS011;857;52.872;9.692;2023-03-12T07:45:11;4.30;;;3.30;;
1719;SDS011;857;52.872;9.692;2023-03-12T07:47:38;6.63;;;3.73;;
1719;SDS011;857;52.872;9.692;2023-03-12T07:50:08;5.30;;;3.90;;
1719;SDS011;857;52.872;9.692;2023-03-12T07:52:36;5.07;;;3.70;;
1719;SDS011;857;52.872;9.692;2023-03-12T07:55:04;4.33;;;3.50;;
1719;SDS011;857;52.872;9.692;2023-03-12T07:57:32;5.60;;;4.50;;
1719;SDS011;857;52.872;9.692;2023-03-12T08:00:00;6.37;;;4.43;;
1719;SDS011;857;52.872;9.692;2023-03-12T08:02:37;6.80;;;5.37;;
1719;SDS011;857;52.872;9.692;2023-03-12T08:05:05;7.67;;;5.30;;
1719;SDS011;857;52.872;9.692;2023-03-12T08:07:34;8.30;;;4.63;;
1719;SDS011;857;52.872;9.692;2023-03-12T08:10:03;10.93;;;6.33;;
1719;SDS011;857;52.872;9.692;2023-03-12T08:16:01;4.47;;;4.07;;
1719;SDS011;857;52.872;9.692;2023-03-12T08:18:29;10.47;;;6.30;;
1719;SDS011;857;52.872;9.692;2023-03-12T08:20:57;11.97;;;8.47;;
1719;SDS011;857;52.872;9.692;2023-03-12T08:23:26;14.40;;;9.17;;
1719;SDS011;857;52.872;9.692;2023-03-12T08:25:53;10.97;;;6.83;;
1719;SDS011;857;52.872;9.692;2023-03-12T08:28:21;13.60;;;8.60;;
1719;SDS011;857;52.872;9.692;2023-03-12T08:30:50;23.33;;;12.13;;
1719;SDS011;857;52.872;9.692;2023-03-12T08:33:18;9.13;;;5.13;;
1719;SDS011;857;52.872;9.692;2023-03-12T08:35:47;5.23;;;4.10;;
1719;SDS011;857;52.872;9.692;2023-03-12T08:38:15;12.13;;;8.20;;
1719;SDS011;857;52.872;9.692;2023-03-12T08:40:44;13.43;;;8.93;;
1719;SDS011;857;52.872;9.692;2023-03-12T08:43:11;13.00;;;8.57;;
1719;SDS011;857;52.872;9.692;2023-03-12T08:45:39;6.30;;;4.37;;
1719;SDS011;857;52.872;9.692;2023-03-12T08:48:07;4.10;;;3.70;;
1719;SDS011;857;52.872;9.692;2023-03-12T08:50:34;4.57;;;3.33;;
1719;SDS011;857;52.872;9.692;2023-03-12T08:53:02;6.30;;;3.80;;
1719;SDS011;857;52.872;9.692;2023-03-12T08:55:30;5.20;;;3.67;;
1719;SDS011;857;52.872;9.692;2023-03-12T08:57:59;6.07;;;3.63;;
1719;SDS011;857;52.872;9.692;2023-03-12T09:00:26;7.67;;;4.10;;
1719;SDS011;857;52.872;9.692;2023-03-12T09:02:54;6.90;;;4.50;;
1719;SDS011;857;52.872;9.692;2023-03-12T09:05:22;5.33;;;4.20;;
1719;SDS011;857;52.872;9.692;2023-03-12T09:07:50;5.80;;;3.47;;
1719;SDS011;857;52.872;9.692;2023-03-12T09:10:18;6.70;;;4.10;;
1719;SDS011;857;52.872;9.692;2023-03-12T09:12:46;7.53;;;4.10;;
1719;SDS011;857;52.872;9.692;2023-03-12T09:15:15;13.70;;;3.67;;
1719;SDS011;857;52.872;9.692;2023-03-12T09:17:43;4.97;;;3.67;;
1719;SDS011;857;52.872;9.692;2023-03-12T09:20:12;5.10;;;3.50;;
1719;SDS011;857;52.872;9.692;2023-03-12T09:22:40;5.90;;;3.80;;
1719;SDS011;857;52.872;9.692;2023-03-12T09:25:08;4.50;;;3.00;;
1719;SDS011;857;52.872;9.692;2023-03-12T09:27:36;5.00;;;3.40;;
1719;SDS011;857;52.872;9.692;2023-03-12T09:30:04;5.53;;;3.53;;
1719;SDS011;857;52.872;9.692;2023-03-12T09:32:34;5.07;;;3.33;;
1719;SDS011;857;52.872;9.692;2023-03-12T09:35:01;3.90;;;3.50;;
1719;SDS011;857;52.872;9.692;2023-03-12T09:37:29;5.63;;;2.93;;
1719;SDS011;857;52.872;9.692;2023-03-12T09:39:57;3.80;;;2.67;;
1719;SDS011;857;52.872;9.692;2023-03-12T09:42:26;4.77;;;2.67;;
1719;SDS011;857;52.872;9.692;2023-03-12T09:44:56;7.00;;;3.20;;
1719;SDS011;857;52.872;9.692;2023-03-12T09:47:26;5.53;;;3.27;;
1719;SDS011;857;52.872;9.692;2023-03-12T09:49:57;5.70;;;3.87;;
1719;SDS011;857;52.872;9.692;2023-03-12T09:52:28;4.63;;;3.27;;
1719;SDS011;857;52.872;9.692;2023-03-12T09:55:00;3.43;;;3.03;;
1719;SDS011;857;52.872;9.692;2023-03-12T09:57:29;6.60;;;2.93;;
1719;SDS011;857;52.872;9.692;2023-03-12T09:59:56;4.77;;;2.70;;
1719;SDS011;857;52.872;9.692;2023-03-12T10:05:13;7.93;;;4.23;;
1719;SDS011;857;52.872;9.692;2023-03-12T10:07:45;9.00;;;4.63;;
1719;SDS011;857;52.872;9.692;2023-03-12T10:10:17;5.50;;;2.70;;
1719;SDS011;857;52.872;9.692;2023-03-12T10:12:47;6.60;;;3.40;;
1719;SDS011;857;52.872;9.692;2023-03-12T10:16:00;6.23;;;3.57;;
1719;SDS011;857;52.872;9.692;2023-03-12T10:18:31;3.83;;;2.77;;
1719;SDS011;857;52.872;9.692;2023-03-12T10:21:08;5.30;;;3.47;;
1719;SDS011;857;52.872;9.692;2023-03-12T10:23:40;6.27;;;3.07;;
1719;SDS011;857;52.872;9.692;2023-03-12T10:26:12;6.83;;;2.97;;
1719;SDS011;857;52.872;9.692;2023-03-12T10:28:41;3.67;;;2.90;;
1719;SDS011;857;52.872;9.692;2023-03-12T10:31:12;3.47;;;2.50;;
1719;SDS011;857;52.872;9.692;2023-03-12T10:33:42;4.87;;;2.60;;
1719;SDS011;857;52.872;9.692;2023-03-12T10:36:14;6.20;;;3.13;;
1719;SDS011;857;52.872;9.692;2023-03-12T10:38:42;6.13;;;2.97;;
1719;SDS011;857;52.872;9.692;2023-03-12T10:41:29;7.47;;;3.50;;
1719;SDS011;857;52.872;9.692;2023-03-12T10:44:15;4.47;;;3.00;;
1719;SDS011;857;52.872;9.692;2023-03-12T10:47:04;2.40;;;1.90;;
1719;SDS011;857;52.872;9.692;2023-03-12T10:49:33;5.50;;;3.03;;
1719;SDS011;857;52.872;9.692;2023-03-12T10:52:04;5.10;;;2.53;;
1719;SDS011;857;52.872;9.692;2023-03-12T10:54:35;4.10;;;2.87;;
1719;SDS011;857;52.872;9.692;2023-03-12T10:57:05;3.10;;;2.53;;
1719;SDS011;857;52.872;9.692;2023-03-12T10:59:34;2.93;;;2.27;;
1719;SDS011;857;52.872;9.692;2023-03-12T11:02:08;5.00;;;2.67;;
1719;SDS011;857;52.872;9.692;2023-03-12T11:04:50;4.37;;;3.10;;
1719;SDS011;857;52.872;9.692;2023-03-12T11:07:20;4.23;;;2.40;;
1719;SDS011;857;52.872;9.692;2023-03-12T11:10:15;4.27;;;2.20;;
1719;SDS011;857;52.872;9.692;2023-03-12T11:12:52;7.50;;;2.40;;
1719;SDS011;857;52.872;9.692;2023-03-12T11:15:21;5.33;;;2.43;;
1719;SDS011;857;52.872;9.692;2023-03-12T11:17:49;10.03;;;4.13;;
1719;SDS011;857;52.872;9.692;2023-03-12T11:20:18;3.60;;;2.37;;
1719;SDS011;857;52.872;9.692;2023-03-12T11:23:03;5.93;;;3.30;;
1719;SDS011;857;52.872;9.692;2023-03-12T11:25:39;4.40;;;2.50;;
1719;SDS011;857;52.872;9.692;2023-03-12T11:28:09;3.30;;;2.60;;
1719;SDS011;857;52.872;9.692;2023-03-12T11:30:39;1.90;;;1.70;;
1719;SDS011;857;52.872;9.692;2023-03-12T11:33:07;3.70;;;2.10;;
1719;SDS011;857;52.872;9.692;2023-03-12T11:35:38;2.53;;;1.73;;
1719;SDS011;857;52.872;9.692;2023-03-12T11:38:19;2.93;;;2.40;;
1719;SDS011;857;52.872;9.692;2023-03-12T11:40:51;4.90;;;2.87;;
1719;SDS011;857;52.872;9.692;2023-03-12T11:43:27;2.57;;;1.93;;
1719;SDS011;857;52.872;9.692;2023-03-12T11:46:06;7.17;;;2.57;;
1719;SDS011;857;52.872;9.692;2023-03-12T11:48:39;3.37;;;2.67;;
1719;SDS011;857;52.872;9.692;2023-03-12T11:51:15;2.67;;;2.00;;
1719;SDS011;857;52.872;9.692;2023-03-12T11:53:50;3.97;;;2.30;;
1719;SDS011;857;52.872;9.692;2023-03-12T11:56:23;6.03;;;2.67;;
1719;SDS011;857;52.872;9.692;2023-03-12T11:59:05;9.20;;;3.37;;
1719;SDS011;857;52.872;9.692;2023-03-12T12:01:39;4.13;;;2.47;;
1719;SDS011;857;52.872;9.692;2023-03-12T12:06:56;4.10;;;2.17;;
1719;SDS011;857;52.872;9.692;2023-03-12T12:09:30;4.70;;;2.50;;
1719;SDS011;857;52.872;9.692;2023-03-12T12:12:11;3.50;;;2.57;;
1719;SDS011;857;52.872;9.692;2023-03-12T12:14:48;3.17;;;2.13;;
1719;SDS011;857;52.872;9.692;2023-03-12T12:17:23;4.03;;;2.33;;
1719;SDS011;857;52.872;9.692;2023-03-12T12:19:56;5.20;;;2.50;;
1719;SDS011;857;52.872;9.692;2023-03-12T12:22:35;5.50;;;3.50;;
1719;SDS011;857;52.872;9.692;2023-03-12T12:25:14;5.43;;;3.00;;
1719;SDS011;857;52.872;9.692;2023-03-12T12:27:44;3.47;;;3.17;;
1719;SDS011;857;52.872;9.692;2023-03-12T12:30:17;6.80;;;3.80;;
1719;SDS011;857;52.872;9.692;2023-03-12T12:32:55;4.43;;;3.87;;
1719;SDS011;857;52.872;9.692;2023-03-12T12:35:26;5.93;;;3.60;;
1719;SDS011;857;52.872;9.692;2023-03-12T12:37:55;5.60;;;4.10;;
1719;SDS011;857;52.872;9.692;2023-03-12T12:40:26;4.30;;;3.87;;
1719;SDS011;857;52.872;9.692;2023-03-12T12:42:58;4.10;;;3.67;;
1719;SDS011;857;52.872;9.692;2023-03-12T12:45:27;4.80;;;4.30;;
1719;SDS011;857;52.872;9.692;2023-03-12T12:47:56;8.93;;;4.90;;
1719;SDS011;857;52.872;9.692;2023-03-12T12:50:26;5.67;;;4.70;;
1719;SDS011;857;52.872;9.692;2023-03-12T12:52:58;6.13;;;5.53;;
1719;SDS011;857;52.872;9.692;2023-03-12T12:55:31;9.60;;;5.70;;
1719;SDS011;857;52.872;9.692;2023-03-12T12:58:00;8.60;;;6.13;;
1719;SDS011;857;52.872;9.692;2023-03-12T13:00:35;17.70;;;11.33;;
1719;SDS011;857;52.872;9.692;2023-03-12T13:03:04;10.33;;;5.80;;
1719;SDS011;857;52.872;9.692;2023-03-12T13:05:40;7.10;;;5.70;;
1719;SDS011;857;52.872;9.692;2023-03-12T13:10:54;6.33;;;5.30;;
1719;SDS011;857;52.872;9.692;2023-03-12T13:13:22;6.90;;;5.53;;
1719;SDS011;857;52.872;9.692;2023-03-12T13:15:50;4.13;;;3.53;;
1719;SDS011;857;52.872;9.692;2023-03-12T13:18:22;10.90;;;6.23;;
1719;SDS011;857;52.872;9.692;2023-03-12T13:23:42;7.67;;;5.70;;
1719;SDS011;857;52.872;9.692;2023-03-12T13:26:19;7.20;;;5.20;;
1719;SDS011;857;52.872;9.692;2023-03-12T13:28:57;9.27;;;6.03;;
1719;SDS011;857;52.872;9.692;2023-03-12T13:31:32;5.93;;;5.10;;
1719;SDS011;857;52.872;9.692;2023-03-12T13:34:25;7.37;;;6.20;;
1719;SDS011;857;52.872;9.692;2023-03-12T13:36:56;14.00;;;10.97;;
1719;SDS011;857;52.872;9.692;2023-03-12T13:39:27;10.43;;;6.40;;
1719;SDS011;857;52.872;9.692;2023-03-12T13:41:58;10.00;;;5.80;;
1719;SDS011;857;52.872;9.692;2023-03-12T13:44:30;6.67;;;5.57;;
1719;SDS011;857;52.872;9.692;2023-03-12T13:47:03;9.30;;;6.57;;
1719;SDS011;857;52.872;9.692;2023-03-12T13:49:35;7.53;;;6.20;;
1719;SDS011;857;52.872;9.692;2023-03-12T13:52:09;8.50;;;6.37;;
1719;SDS011;857;52.872;9.692;2023-03-12T13:54:42;7.80;;;5.90;;
1719;SDS011;857;52.872;9.692;2023-03-12T13:57:12;6.70;;;6.00;;
1719;SDS011;857;52.872;9.692;2023-03-12T13:59:48;14.17;;;11.07;;
1719;SDS011;857;52.872;9.692;2023-03-12T14:02:19;10.33;;;7.03;;
1719;SDS011;857;52.872;9.692;2023-03-12T14:04:48;8.03;;;6.50;;
1719;SDS011;857;52.872;9.692;2023-03-12T14:07:20;8.90;;;7.23;;
1719;SDS011;857;52.872;9.692;2023-03-12T14:09:55;9.73;;;8.20;;
1719;SDS011;857;52.872;9.692;2023-03-12T14:12:27;10.10;;;8.10;;
1719;SDS011;857;52.872;9.692;2023-03-12T14:15:09;10.33;;;7.03;;
1719;SDS011;857;52.872;9.692;2023-03-12T14:17:40;8.37;;;6.90;;
1719;SDS011;857;52.872;9.692;2023-03-12T14:20:11;11.30;;;9.83;;
1719;SDS011;857;52.872;9.692;2023-03-12T14:22:40;9.17;;;8.13;;
1719;SDS011;857;52.872;9.692;2023-03-12T14:25:11;7.93;;;7.03;;
1719;SDS011;857;52.872;9.692;2023-03-12T14:27:41;9.00;;;6.50;;
1719;SDS011;857;52.872;9.692;2023-03-12T14:30:11;8.03;;;7.23;;
1719;SDS011;857;52.872;9.692;2023-03-12T14:32:42;9.13;;;6.80;;
1719;SDS011;857;52.872;9.692;2023-03-12T14:35:13;11.00;;;7.60;;
1719;SDS011;857;52.872;9.692;2023-03-12T14:37:43;9.17;;;7.90;;
1719;SDS011;857;52.872;9.692;2023-03-12T14:40:17;7.30;;;6.60;;
1719;SDS011;857;52.872;9.692;2023-03-12T14:42:48;7.83;;;6.43;;
1719;SDS011;857;52.872;9.692;2023-03-12T14:45:17;12.07;;;8.00;;
1719;SDS011;857;52.872;9.692;2023-03-12T14:47:45;9.10;;;7.37;;
1719;SDS011;857;52.872;9.692;2023-03-12T14:50:16;9.73;;;8.00;;
1719;SDS011;857;52.872;9.692;2023-03-12T14:52:45;8.40;;;6.87;;
1719;SDS011;857;52.872;9.692;2023-03-12T14:55:13;9.30;;;7.60;;
1719;SDS011;857;52.872;9.692;2023-03-12T14:57:43;10.00;;;7.90;;
1719;SDS011;857;52.872;9.692;2023-03-12T15:00:20;10.23;;;7.30;;
1719;SDS011;857;52.872;9.692;2023-03-12T15:02:48;8.13;;;7.20;;
1719;SDS011;857;52.872;9.692;2023-03-12T15:05:16;10.27;;;8.27;;
1719;SDS011;857;52.872;9.692;2023-03-12T15:07:44;9.77;;;7.77;;
1719;SDS011;857;52.872;9.692;2023-03-12T15:10:16;11.10;;;8.93;;
1719;SDS011;857;52.872;9.692;2023-03-12T15:12:44;8.67;;;7.70;;
1719;SDS011;857;52.872;9.692;2023-03-12T15:15:22;10.83;;;9.07;;
1719;SDS011;857;52.872;9.692;2023-03-12T15:17:50;9.50;;;8.40;;
1719;SDS011;857;52.872;9.692;2023-03-12T15:20:17;9.37;;;8.40;;
1719;SDS011;857;52.872;9.692;2023-03-12T15:22:47;12.53;;;9.63;;
1719;SDS011;857;52.872;9.692;2023-03-12T15:25:22;12.83;;;9.90;;
1719;SDS011;857;52.872;9.692;2023-03-12T15:27:59;15.87;;;10.00;;
1719;SDS011;857;52.872;9.692;2023-03-12T15:30:29;18.37;;;9.53;;
1719;SDS011;857;52.872;9.692;2023-03-12T15:33:03;12.80;;;9.87;;
1719;SDS011;857;52.872;9.692;2023-03-12T15:35:31;13.40;;;9.93;;
1719;SDS011;857;52.872;9.692;2023-03-12T15:37:59;11.47;;;9.20;;
1719;SDS011;857;52.872;9.692;2023-03-12T15:40:27;13.10;;;8.73;;
1719;SDS011;857;52.872;9.692;2023-03-12T15:42:56;13.37;;;10.60;;
1719;SDS011;857;52.872;9.692;2023-03-12T15:45:32;11.83;;;9.43;;
1719;SDS011;857;52.872;9.692;2023-03-12T15:48:01;14.57;;;9.30;;
1719;SDS011;857;52.872;9.692;2023-03-12T15:50:30;14.07;;;9.63;;
1719;SDS011;857;52.872;9.692;2023-03-12T15:52:59;14.30;;;10.07;;
1719;SDS011;857;52.872;9.692;2023-03-12T15:55:27;17.30;;;11.57;;
1719;SDS011;857;52.872;9.692;2023-03-12T15:57:56;14.70;;;10.83;;
1719;SDS011;857;52.872;9.692;2023-03-12T16:00:25;16.20;;;11.30;;